Sumpter Township, Michigan
Current Conditions -  °F | °C
As of 8:53 PM on Thursday 20 Nov 2014 (Local Time) from KYIP Reporting Station
Light Snow Light Snow  
Wind Chill: 12°   Ceiling: 4300
Heat Index: 22°   Visibility: 9mi
Dew Point: 11°   Wind: 9mph
Humidity: 63%   Direction: 290°WNW
Pressure: 30.12"   Gusts: NA
Location:  42.1781°N, 83.4854°W
Report Text: KYIP 210153Z 29008KT 9SM -SN OVC043 M06/M12 A3012 RMK AO2 SLP206 P0000 T10561117
Loading
Personal Weather Stations






























Interactive Weather Map New forecast layout! Learn more

10-Day Weather Forecast

Advertisements
Track Severe Weather on mobile